Alakanuk, Alaska
Current Conditions -  °F | °C
As of 6:36 PM on Friday 24 Oct 2014 (Local Time) from PAEM Reporting Station
Overcast Overcast  
Wind Chill: 27°   Ceiling: 1600
Heat Index: 36°   Visibility: 5mi
Dew Point: 28°   Wind: 14mph
Humidity: 75%   Direction: 170°S
Pressure: 29.79"   Gusts: NA
Location:  62.69°N, 164.62°W
Report Text: PAEM 250236Z 17012KT 5SM SCT008 BKN016 OVC050 02/M02 A2979 RMK AO1 P0002
Loading
Personal Weather Stations






























Interactive Weather Map
Tropical Storm Tracking
New forecast layout! Learn more

10-Day Weather Forecast

Advertisements
Track Severe Weather on mobile